Centerville, Washington
Current Conditions -  °F | °C
As of 4:53 PM on Wednesday 22 Oct 2014 (Local Time) from KDLS Reporting Station
Overcast Overcast  
Wind Chill: 57°   Ceiling: 8000
Heat Index: 57°   Visibility: 10mi
Dew Point: 53°   Wind: 5mph
Humidity: 87%   Direction: 350°N
Pressure: 29.68"   Gusts: NA
Location:  45.75°N, 120.91°W
Report Text: KDLS 222353Z AUTO 35004KT 10SM BKN080 OVC100 14/12 A2968 RMK AO2 SLP052 60001 T01390117 10144 20128 56020
Loading
Personal Weather Stations






























Interactive Weather Map
Tropical Storm Tracking
New forecast layout! Learn more

10-Day Weather Forecast

Advertisements
Track Severe Weather on mobile